Time;durP1;ratioP1;P1;durP2;ratioP2;P2;SDS_P1;SDS_P2;PMS_P1;PMS_P2;Temp;Humidity;BMP_temperature;BMP_pressure;BME280_temperature;BME280_humidity;BME280_pressure;Samples;Min_cycle;Max_cycle;Signal;HPM_P1;HPM_P2
2021/09/26 00:02:24;;;;;;;;;27.33;24.67;;;;;19.15;79.72;101061.72;5041649;28;58040;-75
2021/09/26 00:04:49;;;;;;;;;26.33;21.00;;;;;19.11;79.64;101057.31;5037762;28;46667;-75
2021/09/26 00:07:14;;;;;;;;;24.00;22.33;;;;;19.08;79.63;101052.06;5037322;28;54875;-75
2021/09/26 00:09:40;;;;;;;;;28.33;21.33;;;;;19.04;79.58;101050.34;5037509;28;45489;-73
2021/09/26 00:12:06;;;;;;;;;23.00;23.00;;;;;19.01;79.47;101051.28;5036975;28;62101;-76
2021/09/26 00:14:32;;;;;;;;;26.00;21.33;;;;;18.98;79.09;101053.16;5037805;28;45964;-73
2021/09/26 00:16:58;;;;;;;;;25.33;23.67;;;;;18.93;79.08;101055.03;5037633;28;46692;-75
2021/09/26 00:19:27;;;;;;;;;22.33;22.00;;;;;18.93;79.27;101065.75;5037462;28;45400;-74
2021/09/26 00:21:52;;;;;;;;;24.00;22.33;;;;;18.90;79.03;101073.81;5037074;28;47081;-73
2021/09/26 00:24:18;;;;;;;;;22.67;21.00;;;;;18.82;79.51;101049.91;5037340;28;45277;-74
2021/09/26 00:26:43;;;;;;;;;24.00;21.33;;;;;18.84;79.55;101074.81;5031074;28;45432;-74
2021/09/26 00:29:09;;;;;;;;;20.33;20.00;;;;;18.84;78.97;101069.47;4977699;28;1218081;-73
2021/09/26 00:31:34;;;;;;;;;23.67;22.67;;;;;18.82;79.32;101063.28;5020063;28;56902;-74
2021/09/26 00:33:59;;;;;;;;;21.67;18.67;;;;;18.82;79.07;101066.81;5037838;28;46189;-75
2021/09/26 00:36:25;;;;;;;;;16.67;16.67;;;;;18.82;79.13;101069.50;5038077;28;45478;-74
2021/09/26 00:38:50;;;;;;;;;22.67;21.33;;;;;18.83;79.25;101079.28;5037794;28;51238;-73
2021/09/26 00:41:16;;;;;;;;;17.67;17.67;;;;;18.82;78.74;101074.84;5038206;28;45526;-73
2021/09/26 00:43:41;;;;;;;;;19.33;18.33;;;;;18.88;78.81;101083.69;5037822;28;52432;-75
2021/09/26 00:46:06;;;;;;;;;19.00;19.00;;;;;18.89;79.16;101078.28;5038616;28;45410;-74
2021/09/26 00:48:32;;;;;;;;;18.33;18.33;;;;;18.93;79.04;101073.75;5038200;28;45471;-73
2021/09/26 00:50:58;;;;;;;;;19.00;18.00;;;;;18.96;78.96;101087.06;5037636;28;45293;-74
2021/09/26 00:53:23;;;;;;;;;16.67;16.00;;;;;18.98;78.95;101093.28;5037882;28;50707;-74
2021/09/26 00:55:49;;;;;;;;;18.33;18.00;;;;;19.00;78.72;101102.16;5037861;28;45364;-75
2021/09/26 00:58:14;;;;;;;;;14.33;14.00;;;;;18.97;78.83;101096.88;5019953;28;50527;-75
2021/09/26 01:00:40;;;;;;;;;16.33;16.33;;;;;18.99;78.37;101093.25;5037412;28;45685;-76
2021/09/26 01:03:05;;;;;;;;;17.00;15.67;;;;;18.98;78.30;101087.94;5037602;28;52376;-73
2021/09/26 01:05:30;;;;;;;;;20.67;17.33;;;;;19.00;78.27;101070.94;5019454;28;54912;-75
2021/09/26 01:08:02;;;;;;;;;18.33;16.33;;;;;19.04;78.20;101078.00;5002959;28;49635;-73
2021/09/26 01:10:49;;;;;;;;;21.33;18.00;;;;;19.06;77.86;101086.84;5037217;28;47365;-73
2021/09/26 01:13:37;;;;;;;;;16.00;15.00;;;;;19.07;78.41;101088.66;5037421;28;45459;-73
2021/09/26 01:16:24;;;;;;;;;13.67;13.67;;;;;19.10;78.05;101093.91;5019784;28;45467;-73
2021/09/26 01:19:02;;;;;;;;;16.00;15.00;;;;;19.11;77.52;101089.44;5034825;28;45493;-73
2021/09/26 01:22:26;;;;;;;;;14.67;14.00;;;;;19.12;77.66;101085.84;5037257;28;46621;-74
2021/09/26 01:25:32;;;;;;;;;15.00;13.67;;;;;19.09;77.81;101080.56;4994140;28;45911;-74
2021/09/26 01:28:18;;;;;;;;;15.67;15.67;;;;;19.14;77.86;101088.53;4975692;28;45463;-75
2021/09/26 01:30:57;;;;;;;;;16.67;15.67;;;;;19.11;77.56;101093.00;5037703;28;45504;-72
2021/09/26 01:33:32;;;;;;;;;19.00;15.67;;;;;19.14;77.58;101084.03;5020155;28;46433;-75
2021/09/26 01:36:03;;;;;;;;;16.33;15.67;;;;;19.16;77.25;101094.72;5043607;28;45604;-73
2021/09/26 01:38:57;;;;;;;;;15.00;15.00;;;;;19.17;77.26;101101.81;5037018;28;45226;-75
2021/09/26 01:41:33;;;;;;;;;16.33;16.33;;;;;19.18;77.22;101103.63;5019309;28;45813;-75
2021/09/26 01:43:59;;;;;;;;;18.00;18.00;;;;;19.18;76.94;101104.50;5020586;28;46326;-74
2021/09/26 01:46:30;;;;;;;;;17.00;17.00;;;;;19.17;77.56;101100.03;5019306;28;46327;-73
2021/09/26 01:48:59;;;;;;;;;18.33;17.67;;;;;19.19;77.10;101108.94;5020338;28;45476;-73
2021/09/26 01:51:25;;;;;;;;;18.33;18.33;;;;;19.16;77.34;101100.94;5037206;28;45359;-74
2021/09/26 01:53:50;;;;;;;;;19.33;18.67;;;;;19.14;77.09;101093.88;5019303;28;45461;-74
2021/09/26 01:56:15;;;;;;;;;19.00;17.67;;;;;19.10;77.20;101091.25;5018298;28;56068;-73
2021/09/26 01:58:43;;;;;;;;;21.00;16.00;;;;;19.08;77.40;101097.56;5019626;28;45355;-74
2021/09/26 02:01:08;;;;;;;;;18.00;15.33;;;;;19.07;77.66;101091.31;5029124;28;45451;-73
2021/09/26 02:03:34;;;;;;;;;16.33;16.33;;;;;19.06;76.96;101096.69;5019385;28;46488;-75
2021/09/26 02:05:59;;;;;;;;;16.33;16.33;;;;;19.00;77.01;101081.63;5035520;28;45490;-76
2021/09/26 02:08:24;;;;;;;;;17.00;16.00;;;;;19.00;77.38;101086.97;5018906;28;51209;-73
2021/09/26 02:10:51;;;;;;;;;13.00;13.00;;;;;19.02;77.45;101085.19;5016775;28;45594;-75
2021/09/26 02:13:16;;;;;;;;;15.33;13.33;;;;;19.01;77.46;101082.50;5018918;28;47276;-75
2021/09/26 02:15:45;;;;;;;;;14.33;12.67;;;;;19.03;77.03;101086.94;5019259;28;45336;-73
2021/09/26 02:18:10;;;;;;;;;14.00;14.00;;;;;19.05;77.28;101087.78;5036857;28;45392;-74
2021/09/26 02:20:36;;;;;;;;;14.00;13.33;;;;;19.05;76.75;101085.09;5035395;28;45500;-74
2021/09/26 02:23:02;;;;;;;;;16.67;14.67;;;;;19.10;77.20;101096.59;5035141;28;45718;-74
2021/09/26 02:25:27;;;;;;;;;14.00;14.00;;;;;19.09;76.89;101100.19;5036758;28;45274;-75
2021/09/26 02:27:53;;;;;;;;;18.33;15.00;;;;;19.12;76.49;101099.22;5002538;28;46264;-75
2021/09/26 02:30:19;;;;;;;;;13.00;12.00;;;;;19.17;76.94;101099.16;5036826;28;45392;-75
2021/09/26 02:32:44;;;;;;;;;18.33;17.33;;;;;19.15;76.83;101085.81;5035755;28;46543;-74
2021/09/26 02:35:10;;;;;;;;;13.00;12.67;;;;;19.21;77.03;101088.34;5035930;28;45281;-74
2021/09/26 02:37:36;;;;;;;;;15.00;15.00;;;;;19.24;77.19;101090.09;5036570;28;45280;-73
2021/09/26 02:40:02;;;;;;;;;15.67;13.00;;;;;19.26;77.19;101099.84;5036659;28;45561;-74
2021/09/26 02:42:39;;;;;;;;;12.00;12.00;;;;;19.28;76.59;101100.72;5036485;28;47264;-74
2021/09/26 02:45:17;;;;;;;;;12.67;12.00;;;;;19.29;76.47;101099.78;5036534;28;45431;-74
2021/09/26 02:48:06;;;;;;;;;13.00;13.00;;;;;19.29;76.81;101097.13;5012251;28;45286;-74
2021/09/26 02:50:31;;;;;;;;;13.33;11.33;;;;;19.34;76.66;101103.25;5003428;28;45387;-73
2021/09/26 02:52:56;;;;;;;;;13.67;12.67;;;;;19.37;76.59;101097.81;5035517;28;63147;-75
2021/09/26 02:55:22;;;;;;;;;11.67;11.67;;;;;19.38;75.97;101088.88;5001875;28;53212;-74
2021/09/26 02:57:47;;;;;;;;;12.33;11.33;;;;;19.36;76.36;101076.44;5001744;28;45395;-75
2021/09/26 03:00:13;;;;;;;;;13.00;11.00;;;;;19.40;76.29;101077.28;5010843;28;49711;-74
2021/09/26 03:02:38;;;;;;;;;12.33;12.33;;;;;19.40;76.35;101069.22;5037046;28;46994;-74
2021/09/26 03:05:05;;;;;;;;;12.67;12.67;;;;;19.34;75.78;101068.44;5036471;28;45323;-75
2021/09/26 03:07:30;;;;;;;;;13.00;13.00;;;;;19.30;75.69;101056.03;5036091;28;45474;-74
2021/09/26 03:09:56;;;;;;;;;13.67;12.00;;;;;19.28;76.47;101054.28;5036405;28;45319;-75
2021/09/26 03:12:21;;;;;;;;;10.33;8.67;;;;;19.27;76.33;101052.53;5035753;28;59159;-74
2021/09/26 03:14:48;;;;;;;;;13.00;11.00;;;;;19.22;76.34;101043.72;5035687;28;54790;-75
2021/09/26 03:17:13;;;;;;;;;10.67;10.67;;;;;19.19;76.14;101052.72;5035960;28;45350;-74
2021/09/26 03:19:39;;;;;;;;;13.33;10.33;;;;;19.16;76.33;101057.22;5036177;28;45602;-73
2021/09/26 03:22:05;;;;;;;;;15.67;15.67;;;;;19.11;75.90;101050.19;5035920;28;47598;-75
2021/09/26 03:24:30;;;;;;;;;15.67;15.33;;;;;19.08;76.18;101044.03;5018021;28;45352;-74
2021/09/26 03:26:56;;;;;;;;;15.00;13.67;;;;;19.04;76.38;101040.53;5036012;28;45443;-75
2021/09/26 03:29:21;;;;;;;;;15.00;15.00;;;;;19.03;75.96;101040.56;5035890;28;45520;-76
2021/09/26 03:31:47;;;;;;;;;13.00;13.00;;;;;19.02;76.31;101034.31;5016743;28;60440;-74
2021/09/26 03:34:12;;;;;;;;;15.00;15.00;;;;;19.03;76.46;101035.22;5035338;28;51635;-75
2021/09/26 03:36:38;;;;;;;;;14.67;14.00;;;;;19.02;76.34;101025.41;5035525;28;46163;-73
2021/09/26 03:39:03;;;;;;;;;16.00;14.00;;;;;19.02;76.45;101030.78;5035598;28;45420;-74
2021/09/26 03:41:28;;;;;;;;;17.67;16.67;;;;;19.03;76.43;101029.84;5035075;28;45579;-73
2021/09/26 03:43:54;;;;;;;;;14.67;13.00;;;;;19.01;76.83;101028.97;5035606;28;45405;-74
2021/09/26 03:46:19;;;;;;;;;14.00;13.33;;;;;19.05;76.40;101030.69;5035350;28;57500;-75
2021/09/26 03:48:44;;;;;;;;;19.00;16.33;;;;;19.04;76.46;101029.81;5035419;28;54928;-73
2021/09/26 03:51:10;;;;;;;;;15.33;15.33;;;;;19.05;76.20;101044.06;5035438;28;46345;-74
2021/09/26 03:53:35;;;;;;;;;15.00;15.00;;;;;19.03;76.47;101027.19;5035279;28;56386;-75
2021/09/26 03:56:01;;;;;;;;;16.67;15.67;;;;;19.06;76.57;101029.78;5035354;28;45388;-73
2021/09/26 03:58:26;;;;;;;;;21.33;18.67;;;;;19.07;76.37;101026.22;5017871;28;45618;-73
2021/09/26 04:00:52;;;;;;;;;16.00;16.00;;;;;19.05;76.86;101034.25;5027898;28;62475;-73
2021/09/26 04:03:18;;;;;;;;;20.67;17.00;;;;;19.05;76.41;101023.53;5038916;28;45316;-74
2021/09/26 04:05:43;;;;;;;;;20.33;19.33;;;;;19.04;76.54;101020.91;5021262;28;45451;-75
2021/09/26 04:08:09;;;;;;;;;18.00;17.00;;;;;19.02;76.59;101028.97;5020507;28;53478;-74
2021/09/26 04:10:34;;;;;;;;;18.33;17.67;;;;;19.00;77.04;101032.59;5038278;28;54816;-75
2021/09/26 04:12:59;;;;;;;;;20.33;19.00;;;;;18.98;77.05;101026.38;5038727;28;48664;-75
2021/09/26 04:15:25;;;;;;;;;22.00;19.67;;;;;18.96;76.99;101029.09;5038379;28;53512;-74
2021/09/26 04:17:50;;;;;;;;;20.00;19.00;;;;;18.94;76.57;101030.03;5038197;28;48833;-73
2021/09/26 04:20:16;;;;;;;;;21.67;18.33;;;;;18.88;77.24;101008.75;5038131;28;55964;-74
2021/09/26 04:22:41;;;;;;;;;19.00;17.00;;;;;18.90;77.12;101017.63;5038055;28;53174;-74
2021/09/26 04:25:07;;;;;;;;;20.33;18.00;;;;;18.89;76.95;101018.53;5038634;28;45303;-74
2021/09/26 04:27:32;;;;;;;;;19.67;17.67;;;;;18.87;76.97;101015.91;5038640;28;45681;-74
2021/09/26 04:29:58;;;;;;;;;22.33;20.67;;;;;18.84;77.07;101005.25;5037795;28;50139;-73
2021/09/26 04:32:23;;;;;;;;;19.00;17.00;;;;;18.80;76.69;101009.81;5038051;28;54010;-76
2021/09/26 04:34:49;;;;;;;;;18.00;18.00;;;;;18.80;77.13;101008.88;5037833;28;45469;-73
2021/09/26 04:37:14;;;;;;;;;20.33;19.33;;;;;18.79;77.16;101017.84;5038613;28;45483;-73
2021/09/26 04:39:39;;;;;;;;;20.67;16.67;;;;;18.77;77.40;101009.84;5037209;28;56814;-75
2021/09/26 04:42:06;;;;;;;;;19.67;19.67;;;;;18.76;77.14;100999.19;5038312;28;45259;-74
2021/09/26 04:44:32;;;;;;;;;20.67;17.00;;;;;18.73;76.93;101002.78;5038244;28;45470;-75
2021/09/26 04:46:57;;;;;;;;;18.33;18.33;;;;;18.73;77.28;101009.94;5038620;28;45418;-74
2021/09/26 04:49:28;;;;;;;;;18.67;18.67;;;;;18.71;77.05;101003.75;5037957;28;47474;-75
2021/09/26 04:51:56;;;;;;;;;19.67;18.67;;;;;18.68;77.20;101011.81;5038229;28;45527;-75
2021/09/26 04:54:21;;;;;;;;;21.00;20.33;;;;;18.68;77.01;101011.81;5038134;28;45304;-74
2021/09/26 04:56:47;;;;;;;;;21.67;20.00;;;;;18.67;77.23;101007.34;5038156;28;45522;-75
2021/09/26 04:59:12;;;;;;;;;21.00;17.67;;;;;18.65;77.19;101018.09;5037715;28;59348;-75
2021/09/26 05:01:38;;;;;;;;;17.67;17.00;;;;;18.62;77.33;101015.47;5047836;28;59101;-74
2021/09/26 05:04:03;;;;;;;;;19.00;19.00;;;;;18.64;77.39;101029.69;5037463;28;54401;-74
2021/09/26 05:06:28;;;;;;;;;19.67;17.00;;;;;18.65;77.31;101031.47;5038381;28;45434;-73
2021/09/26 05:08:54;;;;;;;;;17.33;17.33;;;;;18.66;77.10;101035.03;5037270;28;53395;-74
2021/09/26 05:11:19;;;;;;;;;17.67;17.67;;;;;18.67;77.59;101040.31;5037055;28;56539;-74
2021/09/26 05:13:45;;;;;;;;;18.67;18.00;;;;;18.69;77.75;101043.88;5037096;28;48923;-73
2021/09/26 05:16:11;;;;;;;;;17.33;16.67;;;;;18.73;77.39;101034.00;5037345;28;53829;-75
2021/09/26 05:18:37;;;;;;;;;20.67;19.33;;;;;18.77;77.51;101039.28;5036908;28;56201;-75
2021/09/26 05:21:03;;;;;;;;;17.00;16.00;;;;;18.81;77.57;101046.34;5037325;28;45399;-74
2021/09/26 05:23:29;;;;;;;;;18.00;17.00;;;;;18.85;77.46;101052.50;5037618;28;45348;-74
2021/09/26 05:25:54;;;;;;;;;21.00;18.00;;;;;18.89;77.55;101053.31;5037876;28;45636;-75
2021/09/26 05:28:20;;;;;;;;;19.00;17.67;;;;;18.90;77.61;101061.31;5036229;28;56012;-74
2021/09/26 05:30:45;;;;;;;;;19.33;19.33;;;;;18.93;77.40;101068.41;5037220;28;56938;-75
2021/09/26 05:33:11;;;;;;;;;21.67;18.67;;;;;18.96;77.13;101071.00;5037457;28;45324;-73
2021/09/26 05:35:36;;;;;;;;;20.33;19.00;;;;;18.99;77.12;101073.63;5037649;28;45372;-73
2021/09/26 05:38:01;;;;;;;;;22.00;17.67;;;;;19.02;77.18;101084.31;5036128;28;56009;-74
2021/09/26 05:40:27;;;;;;;;;24.33;21.33;;;;;19.04;76.82;101083.34;5037094;28;52873;-76
2021/09/26 05:42:52;;;;;;;;;19.33;17.33;;;;;19.04;77.03;101082.47;5037317;28;54047;-75
2021/09/26 05:45:18;;;;;;;;;19.00;19.00;;;;;19.05;76.59;101085.09;5019038;28;54231;-74
2021/09/26 05:47:43;;;;;;;;;21.33;19.67;;;;;19.08;77.01;101089.53;5037327;28;46061;-74
2021/09/26 05:50:09;;;;;;;;;24.00;23.00;;;;;19.10;76.75;101083.22;5037369;28;45434;-74
2021/09/26 05:52:34;;;;;;;;;20.33;20.33;;;;;19.15;76.74;101091.16;5019161;28;45349;-74
2021/09/26 05:55:00;;;;;;;;;19.00;17.67;;;;;19.17;76.84;101088.44;5036943;28;51758;-75
2021/09/26 05:57:25;;;;;;;;;21.67;18.67;;;;;19.16;76.37;101087.56;5036315;28;45838;-74
2021/09/26 05:59:50;;;;;;;;;19.00;18.67;;;;;19.19;76.82;101105.38;5042751;28;45292;-75
2021/09/26 06:02:26;;;;;;;;;20.00;17.00;;;;;19.19;76.64;101111.59;5042147;28;47688;-74
2021/09/26 06:04:52;;;;;;;;;17.00;17.00;;;;;19.20;76.65;101110.69;5037132;28;45441;-74
2021/09/26 06:07:17;;;;;;;;;21.33;19.00;;;;;19.21;76.49;101115.13;5036636;28;46528;-74
2021/09/26 06:09:43;;;;;;;;;21.00;20.67;;;;;19.23;76.70;101117.75;5036319;28;58716;-73
2021/09/26 06:12:12;;;;;;;;;26.67;19.00;;;;;19.23;75.87;101125.78;5037028;28;45474;-74
2021/09/26 06:14:38;;;;;;;;;23.00;21.00;;;;;19.21;76.06;101123.16;5036738;28;45455;-74
2021/09/26 06:17:04;;;;;;;;;20.00;18.00;;;;;19.18;75.86;101131.25;5036765;28;47744;-77
2021/09/26 06:19:29;;;;;;;;;19.00;17.67;;;;;19.12;75.88;101112.63;5036634;28;45285;-76
2021/09/26 06:21:55;;;;;;;;;25.00;19.00;;;;;19.07;75.99;101114.53;5035861;28;55829;-75
2021/09/26 06:24:20;;;;;;;;;20.00;18.33;;;;;19.07;76.65;101120.75;5034509;28;50961;-77
2021/09/26 06:26:45;;;;;;;;;17.00;16.67;;;;;19.07;76.39;101130.59;5034805;28;48704;-77
2021/09/26 06:29:11;;;;;;;;;17.33;16.00;;;;;19.08;76.34;101135.03;5035824;28;54286;-77
2021/09/26 06:31:37;;;;;;;;;21.33;18.00;;;;;19.06;75.92;101135.03;5016847;28;45576;-76
2021/09/26 06:34:02;;;;;;;;;18.67;17.67;;;;;19.05;76.36;101145.78;5018109;28;45547;-77
2021/09/26 06:36:27;;;;;;;;;20.00;19.33;;;;;19.05;76.73;101143.09;5011004;28;46378;-77
2021/09/26 06:38:53;;;;;;;;;19.33;17.33;;;;;18.97;76.12;101132.56;5032928;28;54021;-77
2021/09/26 06:41:19;;;;;;;;;17.67;17.67;;;;;18.93;76.41;101138.88;5036200;28;45284;-75
2021/09/26 06:43:44;;;;;;;;;19.33;18.00;;;;;18.90;76.78;101140.72;5035830;28;45548;-77
2021/09/26 06:46:10;;;;;;;;;15.33;14.33;;;;;18.89;76.19;101147.84;5030287;28;46644;-76
2021/09/26 06:48:35;;;;;;;;;18.00;17.00;;;;;18.87;76.83;101147.00;5035661;28;49280;-73
2021/09/26 06:51:01;;;;;;;;;19.33;18.00;;;;;18.87;76.72;101149.69;5035125;28;53778;-73
2021/09/26 06:53:26;;;;;;;;;16.33;16.33;;;;;18.85;76.95;101146.13;5035764;28;53007;-77
2021/09/26 06:55:52;;;;;;;;;20.67;20.00;;;;;18.82;77.19;101151.56;5035492;28;55673;-76
2021/09/26 06:58:17;;;;;;;;;19.00;16.67;;;;;18.83;76.52;101156.00;5035681;28;51936;-76
2021/09/26 07:00:42;;;;;;;;;21.00;17.00;;;;;18.78;77.06;101166.78;5035809;28;45470;-75
2021/09/26 07:03:08;;;;;;;;;17.00;16.33;;;;;18.78;76.92;101164.09;5036193;28;45206;-79
2021/09/26 07:05:33;;;;;;;;;19.67;17.00;;;;;18.78;76.98;101161.44;5035599;28;45578;-75
2021/09/26 07:07:59;;;;;;;;;22.33;19.33;;;;;18.79;77.00;101162.31;5028560;28;52779;-74
2021/09/26 07:10:24;;;;;;;;;19.67;18.00;;;;;18.82;77.41;101163.16;5023845;28;49641;-74
2021/09/26 07:12:49;;;;;;;;;17.33;16.00;;;;;18.83;76.39;101167.59;5011797;28;45364;-74
2021/09/26 07:15:15;;;;;;;;;19.33;18.00;;;;;18.88;76.49;101159.47;5035257;28;55318;-76
2021/09/26 07:17:40;;;;;;;;;20.33;17.00;;;;;18.90;76.99;101170.13;5035032;28;45432;-77
2021/09/26 07:20:06;;;;;;;;;20.00;14.33;;;;;18.94;76.41;101170.06;5035229;28;55902;-75
2021/09/26 07:22:32;;;;;;;;;18.67;17.33;;;;;19.01;76.46;101174.38;5032650;28;45437;-75
2021/09/26 07:24:57;;;;;;;;;19.33;19.00;;;;;19.02;76.09;101170.81;5034809;28;58501;-75
2021/09/26 07:27:23;;;;;;;;;20.00;19.67;;;;;19.05;75.97;101160.03;5134493;22;45506;-74
2021/09/26 07:29:48;;;;;;;;;19.00;16.00;;;;;19.10;76.38;101166.19;4993589;28;45338;-77
2021/09/26 07:32:14;;;;;;;;;22.33;16.33;;;;;19.15;76.40;101176.81;4991834;28;45908;-75
2021/09/26 07:34:39;;;;;;;;;16.67;16.67;;;;;19.19;76.50;101170.50;4992727;28;47298;-75
2021/09/26 07:37:05;;;;;;;;;21.67;21.33;;;;;19.23;75.76;101180.25;4990027;28;46435;-77
2021/09/26 07:39:31;;;;;;;;;20.67;18.33;;;;;19.26;75.98;101181.97;4986396;28;45483;-77
2021/09/26 07:41:56;;;;;;;;;19.33;18.00;;;;;19.28;76.34;101191.75;4987099;28;45460;-78
2021/09/26 07:44:22;;;;;;;;;19.33;18.00;;;;;19.30;75.58;101194.38;4986042;28;47494;-75
2021/09/26 07:46:47;;;;;;;;;22.33;18.00;;;;;19.31;75.18;101197.03;4984731;28;57403;-75
2021/09/26 07:49:13;;;;;;;;;17.67;17.00;;;;;19.34;75.53;101196.97;4992908;28;45535;-74
2021/09/26 07:51:38;;;;;;;;;18.00;17.67;;;;;19.38;76.05;101198.66;4976097;28;45489;-74
2021/09/26 07:54:04;;;;;;;;;19.67;18.67;;;;;19.45;75.98;101203.94;4991366;28;59977;-74
2021/09/26 07:56:30;;;;;;;;;17.67;16.00;;;;;19.46;75.88;101206.56;4976134;28;45517;-74
2021/09/26 07:58:56;;;;;;;;;20.00;18.00;;;;;19.53;75.98;101212.69;4990591;28;45404;-74
2021/09/26 08:01:21;;;;;;;;;16.67;15.67;;;;;19.54;75.70;101209.97;4992881;28;46021;-74
2021/09/26 08:03:46;;;;;;;;;19.33;17.33;;;;;19.60;75.87;101217.03;4989780;28;55124;-74
2021/09/26 08:06:14;;;;;;;;;18.67;15.67;;;;;19.62;74.99;101218.78;4987269;28;45510;-75
2021/09/26 08:08:39;;;;;;;;;20.67;18.00;;;;;19.63;75.24;101222.34;4988732;28;45440;-75
2021/09/26 08:11:05;;;;;;;;;19.67;17.67;;;;;19.61;75.33;101221.50;4990653;28;45590;-75
2021/09/26 08:13:30;;;;;;;;;19.00;16.67;;;;;19.65;75.12;101222.28;4984337;28;47518;-75
2021/09/26 08:15:56;;;;;;;;;18.33;16.00;;;;;19.64;75.18;101216.06;4988362;28;45460;-76
2021/09/26 08:18:21;;;;;;;;;19.33;17.33;;;;;19.68;74.91;101223.13;4987115;28;45515;-75
2021/09/26 08:20:47;;;;;;;;;19.67;16.67;;;;;19.77;75.27;101224.75;4991421;28;53646;-75
2021/09/26 08:23:12;;;;;;;;;16.67;15.67;;;;;19.86;74.94;101225.41;4992517;28;45736;-75
2021/09/26 08:25:38;;;;;;;;;20.00;18.00;;;;;19.95;74.16;101226.13;4994156;28;45444;-74
2021/09/26 08:28:03;;;;;;;;;20.00;20.00;;;;;20.03;73.99;101216.16;4979498;28;51554;-75
2021/09/26 08:30:29;;;;;;;;;20.00;17.67;;;;;20.17;74.55;101222.06;4990887;28;45674;-73
2021/09/26 08:32:54;;;;;;;;;17.00;15.67;;;;;20.30;74.30;101228.06;4991829;28;59124;-76
2021/09/26 08:35:19;;;;;;;;;18.33;15.67;;;;;20.37;73.57;101218.94;4993287;28;45530;-75
2021/09/26 08:37:45;;;;;;;;;17.00;15.67;;;;;20.44;73.43;101225.91;4988283;28;45605;-76
2021/09/26 08:40:11;;;;;;;;;14.33;12.00;;;;;20.51;72.27;101234.75;4988589;28;45512;-76
2021/09/26 08:42:37;;;;;;;;;17.33;14.33;;;;;20.54;72.16;101238.22;4990703;28;47686;-80
2021/09/26 08:45:04;;;;;;;;;16.00;16.00;;;;;20.53;72.92;101227.53;4992139;28;45460;-80
2021/09/26 08:47:33;;;;;;;;;16.33;16.33;;;;;20.64;72.83;101230.84;4985435;28;47059;-81
2021/09/26 08:50:00;;;;;;;;;16.33;14.00;;;;;20.66;71.95;101234.38;4976108;28;45580;-83
2021/09/26 08:52:26;;;;;;;;;19.67;18.33;;;;;20.66;72.26;101240.59;4992833;28;46720;-82
2021/09/26 08:54:51;;;;;;;;;16.00;14.33;;;;;20.69;71.75;101236.09;4972623;28;45605;-81
2021/09/26 08:57:17;;;;;;;;;17.33;14.33;;;;;20.75;71.18;101235.94;4988161;28;50447;-78
2021/09/26 08:59:42;;;;;;;;;15.67;14.00;;;;;20.79;71.69;101232.28;4986649;28;53017;-78
2021/09/26 09:02:07;;;;;;;;;13.00;11.67;;;;;20.80;71.95;101237.59;4987138;28;61275;-79
2021/09/26 09:04:37;;;;;;;;;14.00;11.67;;;;;20.82;71.74;101234.88;4988938;28;60299;-78
2021/09/26 09:07:04;;;;;;;;;9.67;9.67;;;;;20.84;71.58;101228.56;4983352;28;45455;-79
2021/09/26 09:09:29;;;;;;;;;14.67;13.00;;;;;20.96;71.62;101234.53;4991095;28;45519;-79
2021/09/26 09:12:02;;;;;;;;;15.67;13.33;;;;;21.00;71.31;101233.53;4983828;28;63128;-78
2021/09/26 09:14:57;;;;;;;;;21.00;14.67;;;;;21.05;71.03;101227.13;4986767;28;45618;-78
2021/09/26 09:17:38;;;;;;;;;12.67;11.00;;;;;21.17;70.85;101225.91;4968679;28;45578;-78
2021/09/26 09:20:20;;;;;;;;;14.67;13.67;;;;;21.31;70.83;101228.28;4982974;28;45622;-81
2021/09/26 09:22:53;;;;;;;;;12.33;12.33;;;;;21.31;70.19;101214.84;4990532;28;48030;-79
2021/09/26 09:25:55;;;;;;;;;17.67;14.33;;;;;21.31;69.63;101215.72;4992556;28;45482;-79
2021/09/26 09:28:30;;;;;;;;;15.67;12.33;;;;;21.26;70.28;101214.94;4980846;28;45512;-79
2021/09/26 09:31:00;;;;;;;;;10.00;10.00;;;;;21.33;70.62;101226.44;4989047;28;45571;-81
2021/09/26 09:33:45;;;;;;;;;15.33;11.33;;;;;21.43;68.98;101225.25;4984423;28;46355;-79
2021/09/26 09:36:24;;;;;;;;;33.67;31.67;;;;;21.51;69.02;101228.59;4984280;28;45459;-81
2021/09/26 09:38:52;;;;;;;;;18.67;15.67;;;;;21.53;68.29;101217.81;4984041;28;45394;-78
2021/09/26 09:41:40;;;;;;;;;13.33;11.00;;;;;21.62;68.72;101222.91;4983732;28;45550;-79
2021/09/26 09:44:07;;;;;;;;;11.00;9.33;;;;;21.65;68.38;101222.84;4985290;28;48044;-79
2021/09/26 09:46:40;;;;;;;;;11.33;10.00;;;;;21.66;66.89;101235.34;4992195;28;45508;-79
2021/09/26 09:49:19;;;;;;;;;12.67;10.67;;;;;21.71;68.08;101233.41;4986017;28;45568;-78
2021/09/26 09:51:52;;;;;;;;;16.00;11.67;;;;;21.84;67.72;101232.16;4985619;28;45992;-77
2021/09/26 09:54:36;;;;;;;;;12.00;12.00;;;;;21.94;67.83;101228.25;4991831;28;46960;-79
2021/09/26 09:57:16;;;;;;;;;11.67;10.00;;;;;21.93;67.24;101228.28;4982256;28;45531;-80
2021/09/26 09:59:44;;;;;;;;;12.00;9.00;;;;;21.83;67.95;101233.03;4975939;28;45532;-74
2021/09/26 10:02:10;;;;;;;;;13.33;11.00;;;;;21.68;67.91;101225.47;4990321;28;45517;-72
2021/09/26 10:04:37;;;;;;;;;13.33;10.33;;;;;21.71;68.32;101236.09;4990402;28;55039;-73
2021/09/26 10:07:22;;;;;;;;;14.67;11.33;;;;;21.72;68.43;101240.53;4987402;28;45388;-74
2021/09/26 10:09:48;;;;;;;;;12.00;10.67;;;;;21.72;68.10;101235.16;4983516;28;45495;-75
2021/09/26 10:12:30;;;;;;;;;12.33;8.33;;;;;21.76;68.31;101235.97;4990315;28;45488;-74
2021/09/26 10:15:00;;;;;;;;;12.33;10.33;;;;;21.74;67.49;101227.09;4983546;28;46769;-75
2021/09/26 10:17:26;;;;;;;;;13.00;11.00;;;;;21.74;67.73;101238.72;4986758;28;45511;-74
2021/09/26 10:19:51;;;;;;;;;12.67;12.67;;;;;21.70;68.27;101245.09;4986041;28;45518;-76
2021/09/26 10:22:17;;;;;;;;;13.67;13.00;;;;;21.67;68.36;101242.47;4983272;28;45570;-73
2021/09/26 10:25:00;;;;;;;;;12.33;12.33;;;;;21.75;68.48;101236.91;4988549;28;46499;-75
2021/09/26 10:27:30;;;;;;;;;12.00;10.00;;;;;21.77;68.13;101243.97;4972023;28;45532;-76
2021/09/26 10:30:05;;;;;;;;;15.67;9.33;;;;;21.81;68.41;101239.41;4991168;28;45492;-76
2021/09/26 10:32:30;;;;;;;;;12.33;10.00;;;;;21.88;68.26;101236.47;4986860;28;47204;-73
2021/09/26 10:34:55;;;;;;;;;10.33;10.00;;;;;21.92;67.81;101232.78;4989110;28;45465;-74
2021/09/26 10:37:21;;;;;;;;;9.00;9.00;;;;;21.93;67.94;101229.16;4982660;28;60726;-75
2021/09/26 10:39:47;;;;;;;;;12.33;10.00;;;;;21.96;67.78;101223.72;4954158;28;53372;-74
2021/09/26 10:42:17;;;;;;;;;15.67;11.00;;;;;22.00;66.92;101226.28;4976256;28;46181;-74
2021/09/26 10:44:42;;;;;;;;;14.33;13.33;;;;;22.00;67.01;101227.19;4989164;28;46343;-75
2021/09/26 10:47:16;;;;;;;;;15.67;10.00;;;;;21.97;65.36;101225.47;4983009;28;45533;-76
2021/09/26 10:49:42;;;;;;;;;23.00;18.67;;;;;21.88;66.58;101216.78;4986546;28;45587;-76
2021/09/26 10:52:39;;;;;;;;;20.00;19.00;;;;;21.88;67.09;101227.53;4986307;28;45523;-75
2021/09/26 10:55:30;;;;;;;;;151.00;133.75;;;;;21.82;66.94;101225.91;4989346;28;47203;-74
2021/09/26 10:58:05;;;;;;;;;31.33;29.00;;;;;21.85;66.51;101233.91;4987410;28;46989;-75
2021/09/26 11:00:34;;;;;;;;;16.67;16.67;;;;;21.83;67.03;101227.66;4987659;28;45497;-76
2021/09/26 11:03:21;;;;;;;;;11.00;11.00;;;;;21.83;66.21;101232.16;4988383;28;45528;-75
2021/09/26 11:05:50;;;;;;;;;13.33;9.33;;;;;21.84;66.66;101225.84;4987988;28;47464;-74
2021/09/26 11:08:16;;;;;;;;;10.00;9.00;;;;;21.87;67.04;101223.97;4988150;28;45623;-75
2021/09/26 11:10:48;;;;;;;;;15.67;12.33;;;;;21.96;66.76;101225.53;4985228;28;45380;-75
2021/09/26 11:13:20;;;;;;;;;39.67;30.67;;;;;22.00;67.20;101197.63;4989184;28;45441;-75
2021/09/26 11:16:14;;;;;;;;;26.00;24.00;;;;;22.17;66.71;101202.50;4991183;28;46503;-76